sensor_id;sensor_type;location;lat;lon;timestamp;pressure;altitude;pressure_sealevel;temperature;humidity
21817;BME280;13247;47.504;7.382;2023-09-07T00:01:51;97496.72;;;17.72;100.00
21817;BME280;13247;47.504;7.382;2023-09-07T00:04:37;97498.22;;;17.92;100.00
21817;BME280;13247;47.504;7.382;2023-09-07T00:07:21;97493.66;;;17.80;100.00
21817;BME280;13247;47.504;7.382;2023-09-07T00:10:06;97500.06;;;17.76;100.00
21817;BME280;13247;47.504;7.382;2023-09-07T00:12:52;97491.16;;;17.77;100.00
21817;BME280;13247;47.504;7.382;2023-09-07T00:15:39;97488.09;;;17.69;100.00
21817;BME280;13247;47.504;7.382;2023-09-07T00:18:24;97491.81;;;17.80;100.00
21817;BME280;13247;47.504;7.382;2023-09-07T00:21:08;97489.78;;;17.85;100.00
21817;BME280;13247;47.504;7.382;2023-09-07T00:23:53;97481.84;;;17.99;100.00
21817;BME280;13247;47.504;7.382;2023-09-07T00:26:37;97489.91;;;17.98;100.00
21817;BME280;13247;47.504;7.382;2023-09-07T00:29:22;97493.84;;;17.91;100.00
21817;BME280;13247;47.504;7.382;2023-09-07T00:32:06;97496.19;;;17.81;100.00
21817;BME280;13247;47.504;7.382;2023-09-07T00:34:51;97492.19;;;17.74;100.00
21817;BME280;13247;47.504;7.382;2023-09-07T00:37:36;97497.53;;;17.59;100.00
21817;BME280;13247;47.504;7.382;2023-09-07T00:40:22;97489.72;;;17.71;100.00
21817;BME280;13247;47.504;7.382;2023-09-07T00:43:07;97489.72;;;17.71;100.00
21817;BME280;13247;47.504;7.382;2023-09-07T00:45:52;97488.09;;;17.53;100.00
21817;BME280;13247;47.504;7.382;2023-09-07T00:48:38;97491.84;;;17.34;100.00
21817;BME280;13247;47.504;7.382;2023-09-07T00:51:23;97490.63;;;17.23;100.00
21817;BME280;13247;47.504;7.382;2023-09-07T00:54:08;97484.13;;;17.45;100.00
21817;BME280;13247;47.504;7.382;2023-09-07T00:56:53;97482.84;;;17.36;100.00
21817;BME280;13247;47.504;7.382;2023-09-07T00:59:38;97483.88;;;17.49;100.00
21817;BME280;13247;47.504;7.382;2023-09-07T01:02:24;97488.41;;;17.47;100.00
21817;BME280;13247;47.504;7.382;2023-09-07T01:05:08;97481.22;;;17.18;100.00
21817;BME280;13247;47.504;7.382;2023-09-07T01:08:03;97487.22;;;17.06;100.00
21817;BME280;13247;47.504;7.382;2023-09-07T01:10:51;97480.56;;;17.14;100.00
21817;BME280;13247;47.504;7.382;2023-09-07T01:13:35;97487.84;;;16.94;100.00
21817;BME280;13247;47.504;7.382;2023-09-07T01:16:21;97487.63;;;16.98;100.00
21817;BME280;13247;47.504;7.382;2023-09-07T01:19:09;97486.06;;;16.94;100.00
21817;BME280;13247;47.504;7.382;2023-09-07T01:21:54;97484.81;;;17.01;100.00
21817;BME280;13247;47.504;7.382;2023-09-07T01:24:39;97480.53;;;16.99;100.00
21817;BME280;13247;47.504;7.382;2023-09-07T01:27:24;97480.69;;;16.96;100.00
21817;BME280;13247;47.504;7.382;2023-09-07T01:30:09;97486.34;;;16.73;100.00
21817;BME280;13247;47.504;7.382;2023-09-07T01:32:54;97482.41;;;16.97;100.00
21817;BME280;13247;47.504;7.382;2023-09-07T01:35:39;97479.69;;;17.14;100.00
21817;BME280;13247;47.504;7.382;2023-09-07T01:38:25;97473.97;;;17.06;100.00
21817;BME280;13247;47.504;7.382;2023-09-07T01:41:10;97476.69;;;17.04;100.00
21817;BME280;13247;47.504;7.382;2023-09-07T01:43:54;97479.31;;;16.89;100.00
21817;BME280;13247;47.504;7.382;2023-09-07T01:46:40;97478.22;;;16.93;100.00
21817;BME280;13247;47.504;7.382;2023-09-07T01:49:24;97475.13;;;16.85;100.00
21817;BME280;13247;47.504;7.382;2023-09-07T01:52:09;97474.69;;;16.92;100.00
21817;BME280;13247;47.504;7.382;2023-09-07T01:54:55;97475.91;;;16.87;100.00
21817;BME280;13247;47.504;7.382;2023-09-07T01:57:40;97471.28;;;16.75;100.00
21817;BME280;13247;47.504;7.382;2023-09-07T02:00:25;97473.53;;;16.65;100.00
21817;BME280;13247;47.504;7.382;2023-09-07T02:03:09;97466.13;;;16.72;100.00
21817;BME280;13247;47.504;7.382;2023-09-07T02:05:55;97469.25;;;16.95;100.00
21817;BME280;13247;47.504;7.382;2023-09-07T02:08:40;97475.75;;;17.05;100.00
21817;BME280;13247;47.504;7.382;2023-09-07T02:11:24;97462.66;;;16.87;100.00
21817;BME280;13247;47.504;7.382;2023-09-07T02:14:09;97472.84;;;16.62;100.00
21817;BME280;13247;47.504;7.382;2023-09-07T02:16:53;97470.28;;;16.43;100.00
21817;BME280;13247;47.504;7.382;2023-09-07T02:19:38;97461.50;;;16.25;100.00
21817;BME280;13247;47.504;7.382;2023-09-07T02:22:22;97471.63;;;16.34;100.00
21817;BME280;13247;47.504;7.382;2023-09-07T02:25:07;97464.81;;;16.46;100.00
21817;BME280;13247;47.504;7.382;2023-09-07T02:27:52;97468.41;;;16.45;100.00
21817;BME280;13247;47.504;7.382;2023-09-07T02:30:36;97471.47;;;16.20;100.00
21817;BME280;13247;47.504;7.382;2023-09-07T02:33:21;97473.25;;;16.20;100.00
21817;BME280;13247;47.504;7.382;2023-09-07T02:36:06;97471.69;;;16.50;100.00
21817;BME280;13247;47.504;7.382;2023-09-07T02:38:51;97469.91;;;16.33;100.00
21817;BME280;13247;47.504;7.382;2023-09-07T02:41:35;97467.94;;;16.54;100.00
21817;BME280;13247;47.504;7.382;2023-09-07T02:44:20;97469.13;;;16.31;100.00
21817;BME280;13247;47.504;7.382;2023-09-07T02:47:05;97472.00;;;16.27;100.00
21817;BME280;13247;47.504;7.382;2023-09-07T02:49:49;97476.59;;;16.40;100.00
21817;BME280;13247;47.504;7.382;2023-09-07T02:52:34;97472.56;;;16.51;100.00
21817;BME280;13247;47.504;7.382;2023-09-07T02:55:19;97479.63;;;16.33;100.00
21817;BME280;13247;47.504;7.382;2023-09-07T02:58:04;97475.81;;;16.38;100.00
21817;BME280;13247;47.504;7.382;2023-09-07T03:00:48;97471.47;;;16.55;100.00
21817;BME280;13247;47.504;7.382;2023-09-07T03:03:33;97475.66;;;16.59;100.00
21817;BME280;13247;47.504;7.382;2023-09-07T03:06:18;97476.19;;;16.48;100.00
21817;BME280;13247;47.504;7.382;2023-09-07T03:09:03;97470.88;;;16.15;100.00
21817;BME280;13247;47.504;7.382;2023-09-07T03:11:53;97473.78;;;16.26;100.00
21817;BME280;13247;47.504;7.382;2023-09-07T03:14:38;97463.47;;;16.22;100.00
21817;BME280;13247;47.504;7.382;2023-09-07T03:17:22;97470.31;;;16.26;100.00
21817;BME280;13247;47.504;7.382;2023-09-07T03:20:07;97471.09;;;16.28;100.00
21817;BME280;13247;47.504;7.382;2023-09-07T03:22:58;97466.31;;;16.52;100.00
21817;BME280;13247;47.504;7.382;2023-09-07T03:25:43;97467.25;;;16.51;100.00
21817;BME280;13247;47.504;7.382;2023-09-07T03:28:27;97472.56;;;16.33;100.00
21817;BME280;13247;47.504;7.382;2023-09-07T03:31:12;97464.25;;;16.24;100.00
21817;BME280;13247;47.504;7.382;2023-09-07T03:33:56;97466.50;;;16.14;100.00
21817;BME280;13247;47.504;7.382;2023-09-07T03:36:41;97470.53;;;16.21;100.00
21817;BME280;13247;47.504;7.382;2023-09-07T03:39:25;97471.97;;;16.11;100.00
21817;BME280;13247;47.504;7.382;2023-09-07T03:42:10;97481.56;;;15.78;100.00
21817;BME280;13247;47.504;7.382;2023-09-07T03:44:54;97489.44;;;15.80;100.00
21817;BME280;13247;47.504;7.382;2023-09-07T03:47:39;97479.25;;;15.89;100.00
21817;BME280;13247;47.504;7.382;2023-09-07T03:50:24;97476.13;;;15.81;100.00
21817;BME280;13247;47.504;7.382;2023-09-07T03:53:08;97486.06;;;15.76;100.00
21817;BME280;13247;47.504;7.382;2023-09-07T03:55:53;97480.34;;;15.85;100.00
21817;BME280;13247;47.504;7.382;2023-09-07T03:58:37;97479.41;;;16.03;100.00
21817;BME280;13247;47.504;7.382;2023-09-07T04:01:22;97475.44;;;16.12;100.00
21817;BME280;13247;47.504;7.382;2023-09-07T04:04:06;97470.88;;;16.15;100.00
21817;BME280;13247;47.504;7.382;2023-09-07T04:06:51;97476.44;;;16.09;100.00
21817;BME280;13247;47.504;7.382;2023-09-07T04:09:35;97469.06;;;16.16;100.00
21817;BME280;13247;47.504;7.382;2023-09-07T04:12:20;97477.94;;;15.98;100.00
21817;BME280;13247;47.504;7.382;2023-09-07T04:15:05;97470.78;;;16.00;100.00
21817;BME280;13247;47.504;7.382;2023-09-07T04:17:50;97474.97;;;16.04;100.00
21817;BME280;13247;47.504;7.382;2023-09-07T04:20:35;97474.88;;;16.05;100.00
21817;BME280;13247;47.504;7.382;2023-09-07T04:23:20;97469.53;;;16.07;100.00
21817;BME280;13247;47.504;7.382;2023-09-07T04:26:11;97478.31;;;16.07;100.00
21817;BME280;13247;47.504;7.382;2023-09-07T04:28:56;97479.16;;;16.25;100.00
21817;BME280;13247;47.504;7.382;2023-09-07T04:31:41;97479.03;;;16.11;100.00
21817;BME280;13247;47.504;7.382;2023-09-07T04:34:25;97481.44;;;15.81;100.00
21817;BME280;13247;47.504;7.382;2023-09-07T04:37:10;97473.97;;;15.89;100.00
21817;BME280;13247;47.504;7.382;2023-09-07T04:39:54;97482.03;;;15.86;100.00
21817;BME280;13247;47.504;7.382;2023-09-07T04:42:39;97485.22;;;15.76;100.00
21817;BME280;13247;47.504;7.382;2023-09-07T04:45:24;97483.09;;;15.65;100.00
21817;BME280;13247;47.504;7.382;2023-09-07T04:48:08;97479.16;;;15.73;100.00
21817;BME280;13247;47.504;7.382;2023-09-07T04:51:05;97488.81;;;15.75;100.00
21817;BME280;13247;47.504;7.382;2023-09-07T04:53:50;97487.91;;;15.57;100.00
21817;BME280;13247;47.504;7.382;2023-09-07T04:56:35;97484.59;;;15.70;100.00
21817;BME280;13247;47.504;7.382;2023-09-07T04:59:19;97481.75;;;15.75;100.00
21817;BME280;13247;47.504;7.382;2023-09-07T05:02:04;97488.69;;;15.59;100.00
21817;BME280;13247;47.504;7.382;2023-09-07T05:04:49;97493.41;;;15.71;100.00
21817;BME280;13247;47.504;7.382;2023-09-07T05:07:34;97491.81;;;15.50;100.00
21817;BME280;13247;47.504;7.382;2023-09-07T05:10:19;97489.22;;;15.48;100.00
21817;BME280;13247;47.504;7.382;2023-09-07T05:13:03;97490.41;;;15.60;100.00
21817;BME280;13247;47.504;7.382;2023-09-07T05:15:52;97500.44;;;15.35;100.00
21817;BME280;13247;47.504;7.382;2023-09-07T05:18:37;97498.66;;;15.54;100.00
21817;BME280;13247;47.504;7.382;2023-09-07T05:21:22;97505.88;;;15.67;100.00
21817;BME280;13247;47.504;7.382;2023-09-07T05:24:07;97503.97;;;15.71;100.00
21817;BME280;13247;47.504;7.382;2023-09-07T05:26:51;97502.69;;;15.61;100.00
21817;BME280;13247;47.504;7.382;2023-09-07T05:29:36;97502.00;;;15.57;100.00
21817;BME280;13247;47.504;7.382;2023-09-07T05:32:20;97512.19;;;15.65;100.00
21817;BME280;13247;47.504;7.382;2023-09-07T05:35:05;97504.28;;;15.82;100.00
21817;BME280;13247;47.504;7.382;2023-09-07T05:37:50;97513.78;;;15.86;100.00
21817;BME280;13247;47.504;7.382;2023-09-07T05:40:44;97517.69;;;15.96;100.00
21817;BME280;13247;47.504;7.382;2023-09-07T05:43:29;97519.84;;;15.88;100.00
21817;BME280;13247;47.504;7.382;2023-09-07T05:46:14;97517.47;;;16.01;100.00
21817;BME280;13247;47.504;7.382;2023-09-07T05:48:59;97528.28;;;16.13;100.00
21817;BME280;13247;47.504;7.382;2023-09-07T05:51:44;97528.66;;;16.06;100.00
21817;BME280;13247;47.504;7.382;2023-09-07T05:54:29;97524.72;;;16.31;100.00
21817;BME280;13247;47.504;7.382;2023-09-07T05:57:14;97529.78;;;16.36;100.00
21817;BME280;13247;47.504;7.382;2023-09-07T05:59:59;97535.75;;;16.39;100.00
21817;BME280;13247;47.504;7.382;2023-09-07T06:02:45;97531.13;;;16.62;100.00
21817;BME280;13247;47.504;7.382;2023-09-07T06:05:30;97534.13;;;16.54;100.00
21817;BME280;13247;47.504;7.382;2023-09-07T06:08:15;97528.59;;;16.76;100.00
21817;BME280;13247;47.504;7.382;2023-09-07T06:11:00;97534.13;;;17.04;100.00
21817;BME280;13247;47.504;7.382;2023-09-07T06:13:45;97534.28;;;17.01;100.00
21817;BME280;13247;47.504;7.382;2023-09-07T06:16:31;97527.22;;;17.17;100.00
21817;BME280;13247;47.504;7.382;2023-09-07T06:19:16;97521.84;;;17.18;100.00
21817;BME280;13247;47.504;7.382;2023-09-07T06:22:00;97526.91;;;17.23;100.00
21817;BME280;13247;47.504;7.382;2023-09-07T06:24:45;97523.06;;;17.44;100.00
21817;BME280;13247;47.504;7.382;2023-09-07T06:27:29;97513.25;;;17.62;100.00
21817;BME280;13247;47.504;7.382;2023-09-07T06:30:14;97511.91;;;17.55;100.00
21817;BME280;13247;47.504;7.382;2023-09-07T06:32:59;97517.69;;;17.77;100.00
21817;BME280;13247;47.504;7.382;2023-09-07T06:35:43;97518.72;;;17.74;100.00
21817;BME280;13247;47.504;7.382;2023-09-07T06:38:28;97512.16;;;17.95;100.00
21817;BME280;13247;47.504;7.382;2023-09-07T06:41:13;97514.91;;;18.10;100.00
21817;BME280;13247;47.504;7.382;2023-09-07T06:43:57;97524.16;;;18.02;100.00
21817;BME280;13247;47.504;7.382;2023-09-07T06:46:42;97526.53;;;18.07;100.00
21817;BME280;13247;47.504;7.382;2023-09-07T06:49:26;97522.31;;;18.19;100.00
21817;BME280;13247;47.504;7.382;2023-09-07T06:52:13;97532.75;;;18.22;100.00
21817;BME280;13247;47.504;7.382;2023-09-07T06:54:59;97526.31;;;18.26;100.00
21817;BME280;13247;47.504;7.382;2023-09-07T06:57:44;97531.44;;;18.44;100.00
21817;BME280;13247;47.504;7.382;2023-09-07T07:00:29;97523.56;;;18.57;100.00
21817;BME280;13247;47.504;7.382;2023-09-07T07:03:13;97532.41;;;18.57;100.00
21817;BME280;13247;47.504;7.382;2023-09-07T07:05:58;97531.00;;;18.66;100.00
21817;BME280;13247;47.504;7.382;2023-09-07T07:08:43;97534.25;;;18.71;100.00
21817;BME280;13247;47.504;7.382;2023-09-07T07:11:27;97536.06;;;18.85;100.00
21817;BME280;13247;47.504;7.382;2023-09-07T07:14:12;97538.25;;;18.92;100.00
21817;BME280;13247;47.504;7.382;2023-09-07T07:16:57;97537.50;;;19.04;100.00
21817;BME280;13247;47.504;7.382;2023-09-07T07:19:41;97533.69;;;19.08;100.00
21817;BME280;13247;47.504;7.382;2023-09-07T07:22:27;97527.81;;;19.17;100.00
21817;BME280;13247;47.504;7.382;2023-09-07T07:25:12;97535.41;;;19.37;100.00
21817;BME280;13247;47.504;7.382;2023-09-07T07:27:57;97533.69;;;19.50;100.00
21817;BME280;13247;47.504;7.382;2023-09-07T07:30:43;97531.09;;;19.63;100.00
21817;BME280;13247;47.504;7.382;2023-09-07T07:33:27;97533.94;;;19.74;100.00
21817;BME280;13247;47.504;7.382;2023-09-07T07:36:12;97535.53;;;19.77;100.00
21817;BME280;13247;47.504;7.382;2023-09-07T07:38:56;97532.53;;;19.95;100.00
21817;BME280;13247;47.504;7.382;2023-09-07T07:41:41;97539.16;;;20.02;100.00
21817;BME280;13247;47.504;7.382;2023-09-07T07:44:26;97539.81;;;20.06;100.00
21817;BME280;13247;47.504;7.382;2023-09-07T07:47:11;97535.03;;;20.25;100.00
21817;BME280;13247;47.504;7.382;2023-09-07T07:49:56;97531.41;;;20.39;100.00
21817;BME280;13247;47.504;7.382;2023-09-07T07:52:41;97542.31;;;20.48;100.00
21817;BME280;13247;47.504;7.382;2023-09-07T07:55:26;97532.94;;;20.55;100.00
21817;BME280;13247;47.504;7.382;2023-09-07T07:58:10;97531.44;;;20.64;100.00
21817;BME280;13247;47.504;7.382;2023-09-07T08:00:55;97530.53;;;20.90;100.00
21817;BME280;13247;47.504;7.382;2023-09-07T08:03:42;97527.97;;;20.88;100.00
21817;BME280;13247;47.504;7.382;2023-09-07T08:06:27;97541.03;;;21.05;100.00
21817;BME280;13247;47.504;7.382;2023-09-07T08:09:12;97529.81;;;21.13;100.00
21817;BME280;13247;47.504;7.382;2023-09-07T08:11:58;97537.59;;;21.16;100.00
21817;BME280;13247;47.504;7.382;2023-09-07T08:14:43;97534.47;;;21.35;100.00
21817;BME280;13247;47.504;7.382;2023-09-07T08:17:27;97531.47;;;21.52;100.00
21817;BME280;13247;47.504;7.382;2023-09-07T08:20:12;97528.13;;;21.61;100.00
21817;BME280;13247;47.504;7.382;2023-09-07T08:22:57;97531.59;;;21.86;100.00
21817;BME280;13247;47.504;7.382;2023-09-07T08:25:42;97531.78;;;21.96;100.00
21817;BME280;13247;47.504;7.382;2023-09-07T08:28:30;97525.00;;;22.03;100.00
21817;BME280;13247;47.504;7.382;2023-09-07T08:31:15;97517.91;;;22.15;100.00
21817;BME280;13247;47.504;7.382;2023-09-07T08:34:07;97518.78;;;22.26;100.00
21817;BME280;13247;47.504;7.382;2023-09-07T08:36:55;97515.09;;;22.40;100.00
21817;BME280;13247;47.504;7.382;2023-09-07T08:39:43;97517.69;;;22.52;100.00
21817;BME280;13247;47.504;7.382;2023-09-07T08:42:27;97521.69;;;22.82;100.00
21817;BME280;13247;47.504;7.382;2023-09-07T08:45:14;97514.28;;;22.96;100.00
21817;BME280;13247;47.504;7.382;2023-09-07T08:48:05;97517.97;;;23.17;100.00
21817;BME280;13247;47.504;7.382;2023-09-07T08:50:50;97513.59;;;23.16;100.00
21817;BME280;13247;47.504;7.382;2023-09-07T08:53:37;97517.75;;;23.31;100.00
21817;BME280;13247;47.504;7.382;2023-09-07T08:56:23;97517.38;;;23.47;100.00
21817;BME280;13247;47.504;7.382;2023-09-07T08:59:08;97514.22;;;23.53;100.00
21817;BME280;13247;47.504;7.382;2023-09-07T09:01:56;97512.97;;;23.68;100.00
21817;BME280;13247;47.504;7.382;2023-09-07T09:04:42;97507.84;;;23.76;100.00
21817;BME280;13247;47.504;7.382;2023-09-07T09:07:27;97507.38;;;23.71;100.00
21817;BME280;13247;47.504;7.382;2023-09-07T09:10:11;97511.38;;;23.66;100.00
21817;BME280;13247;47.504;7.382;2023-09-07T09:12:56;97516.38;;;23.70;100.00
21817;BME280;13247;47.504;7.382;2023-09-07T09:15:41;97513.91;;;23.89;100.00
21817;BME280;13247;47.504;7.382;2023-09-07T09:18:25;97511.44;;;23.97;100.00
21817;BME280;13247;47.504;7.382;2023-09-07T09:21:11;97512.75;;;24.14;100.00
21817;BME280;13247;47.504;7.382;2023-09-07T09:23:58;97511.41;;;24.20;100.00
21817;BME280;13247;47.504;7.382;2023-09-07T09:26:43;97507.34;;;24.36;100.00
21817;BME280;13247;47.504;7.382;2023-09-07T09:29:27;97506.91;;;24.52;100.00
21817;BME280;13247;47.504;7.382;2023-09-07T09:32:14;97501.59;;;24.61;100.00
21817;BME280;13247;47.504;7.382;2023-09-07T09:34:59;97503.16;;;24.64;100.00
21817;BME280;13247;47.504;7.382;2023-09-07T09:37:48;97498.22;;;24.80;100.00
21817;BME280;13247;47.504;7.382;2023-09-07T09:40:34;97494.56;;;24.81;100.00
21817;BME280;13247;47.504;7.382;2023-09-07T09:43:22;97494.28;;;24.84;100.00
21817;BME280;13247;47.504;7.382;2023-09-07T09:46:08;97494.91;;;24.87;100.00
21817;BME280;13247;47.504;7.382;2023-09-07T09:48:54;97497.09;;;25.33;100.00
21817;BME280;13247;47.504;7.382;2023-09-07T09:51:40;97499.91;;;25.52;100.00
21817;BME280;13247;47.504;7.382;2023-09-07T09:54:26;97494.75;;;25.80;100.00
21817;BME280;13247;47.504;7.382;2023-09-07T09:57:12;97495.41;;;26.12;100.00
21817;BME280;13247;47.504;7.382;2023-09-07T09:59:57;97493.69;;;26.11;100.00
21817;BME280;13247;47.504;7.382;2023-09-07T10:02:49;97484.34;;;26.15;100.00
21817;BME280;13247;47.504;7.382;2023-09-07T10:05:35;97477.56;;;26.30;100.00
21817;BME280;13247;47.504;7.382;2023-09-07T10:08:20;97476.16;;;26.26;100.00
21817;BME280;13247;47.504;7.382;2023-09-07T10:11:10;97480.38;;;26.00;100.00
21817;BME280;13247;47.504;7.382;2023-09-07T10:13:58;97472.56;;;25.97;100.00
21817;BME280;13247;47.504;7.382;2023-09-07T10:16:53;97472.78;;;26.33;100.00
21817;BME280;13247;47.504;7.382;2023-09-07T10:19:44;97469.22;;;26.42;100.00
21817;BME280;13247;47.504;7.382;2023-09-07T10:22:35;97458.00;;;26.66;100.00
21817;BME280;13247;47.504;7.382;2023-09-07T10:25:21;97460.41;;;26.69;100.00
21817;BME280;13247;47.504;7.382;2023-09-07T10:28:05;97468.66;;;26.77;100.00
21817;BME280;13247;47.504;7.382;2023-09-07T10:31:03;97459.06;;;27.11;100.00
21817;BME280;13247;47.504;7.382;2023-09-07T10:33:48;97454.59;;;27.66;100.00
21817;BME280;13247;47.504;7.382;2023-09-07T10:36:35;97464.75;;;27.45;100.00
21817;BME280;13247;47.504;7.382;2023-09-07T10:39:21;97464.50;;;27.39;98.88
21817;BME280;13247;47.504;7.382;2023-09-07T10:42:06;97460.69;;;27.41;99.22
21817;BME280;13247;47.504;7.382;2023-09-07T10:44:50;97456.88;;;27.61;97.19
21817;BME280;13247;47.504;7.382;2023-09-07T10:47:35;97456.75;;;27.16;100.00
21817;BME280;13247;47.504;7.382;2023-09-07T10:50:20;97455.31;;;27.59;89.75
21817;BME280;13247;47.504;7.382;2023-09-07T10:53:05;97450.94;;;27.58;90.28
21817;BME280;13247;47.504;7.382;2023-09-07T10:55:50;97452.00;;;27.65;95.67
21817;BME280;13247;47.504;7.382;2023-09-07T10:58:36;97445.66;;;27.66;89.52
21817;BME280;13247;47.504;7.382;2023-09-07T11:01:25;97447.50;;;27.29;94.10
21817;BME280;13247;47.504;7.382;2023-09-07T11:04:09;97441.66;;;27.33;93.22
21817;BME280;13247;47.504;7.382;2023-09-07T11:06:55;97436.00;;;27.27;95.87
21817;BME280;13247;47.504;7.382;2023-09-07T11:09:43;97438.41;;;27.66;96.35
21817;BME280;13247;47.504;7.382;2023-09-07T11:12:28;97435.94;;;28.00;89.62
21817;BME280;13247;47.504;7.382;2023-09-07T11:15:13;97434.06;;;28.01;89.33
21817;BME280;13247;47.504;7.382;2023-09-07T11:18:03;97435.31;;;28.06;87.02
21817;BME280;13247;47.504;7.382;2023-09-07T11:20:49;97438.63;;;28.35;86.36
21817;BME280;13247;47.504;7.382;2023-09-07T11:23:34;97428.59;;;28.63;83.15
21817;BME280;13247;47.504;7.382;2023-09-07T11:26:22;97435.03;;;28.96;78.63
21817;BME280;13247;47.504;7.382;2023-09-07T11:29:07;97432.59;;;28.41;82.81
21817;BME280;13247;47.504;7.382;2023-09-07T11:31:52;97435.41;;;28.14;82.65
21817;BME280;13247;47.504;7.382;2023-09-07T11:34:48;97439.47;;;28.01;86.39
21817;BME280;13247;47.504;7.382;2023-09-07T11:37:34;97430.06;;;28.22;83.41
21817;BME280;13247;47.504;7.382;2023-09-07T11:40:19;97423.03;;;28.64;78.44
21817;BME280;13247;47.504;7.382;2023-09-07T11:43:04;97433.75;;;28.74;77.37
21817;BME280;13247;47.504;7.382;2023-09-07T11:45:49;97430.03;;;29.01;80.11
21817;BME280;13247;47.504;7.382;2023-09-07T11:48:34;97433.97;;;29.40;74.83
21817;BME280;13247;47.504;7.382;2023-09-07T11:51:18;97426.03;;;28.87;74.93
21817;BME280;13247;47.504;7.382;2023-09-07T11:54:04;97424.53;;;29.10;73.39
21817;BME280;13247;47.504;7.382;2023-09-07T11:56:49;97422.47;;;29.38;66.29
21817;BME280;13247;47.504;7.382;2023-09-07T11:59:33;97425.94;;;29.56;61.87
21817;BME280;13247;47.504;7.382;2023-09-07T12:02:18;97416.22;;;29.04;69.44
21817;BME280;13247;47.504;7.382;2023-09-07T12:05:06;97417.31;;;29.19;69.96
21817;BME280;13247;47.504;7.382;2023-09-07T12:07:53;97415.28;;;29.96;63.92
21817;BME280;13247;47.504;7.382;2023-09-07T12:10:39;97410.25;;;30.34;60.92
21817;BME280;13247;47.504;7.382;2023-09-07T12:13:23;97407.84;;;30.14;64.00
21817;BME280;13247;47.504;7.382;2023-09-07T12:16:10;97408.03;;;30.21;62.78
21817;BME280;13247;47.504;7.382;2023-09-07T12:18:54;97414.75;;;29.93;64.76
21817;BME280;13247;47.504;7.382;2023-09-07T12:21:39;97406.16;;;30.30;63.11
21817;BME280;13247;47.504;7.382;2023-09-07T12:24:24;97400.44;;;30.65;63.13
21817;BME280;13247;47.504;7.382;2023-09-07T12:27:08;97404.84;;;30.42;61.46
21817;BME280;13247;47.504;7.382;2023-09-07T12:29:53;97402.59;;;30.05;66.57
21817;BME280;13247;47.504;7.382;2023-09-07T12:32:38;97402.03;;;29.77;68.46
21817;BME280;13247;47.504;7.382;2023-09-07T12:35:22;97402.59;;;30.21;70.84
21817;BME280;13247;47.504;7.382;2023-09-07T12:38:08;97382.44;;;31.04;62.39
21817;BME280;13247;47.504;7.382;2023-09-07T12:40:55;97381.63;;;31.34;60.93
21817;BME280;13247;47.504;7.382;2023-09-07T12:43:40;97385.31;;;31.57;55.07
21817;BME280;13247;47.504;7.382;2023-09-07T12:46:24;97385.38;;;31.33;57.23
21817;BME280;13247;47.504;7.382;2023-09-07T12:49:09;97379.97;;;31.41;61.71
21817;BME280;13247;47.504;7.382;2023-09-07T12:51:54;97378.91;;;30.79;58.88
21817;BME280;13247;47.504;7.382;2023-09-07T12:54:38;97374.50;;;30.94;57.92
21817;BME280;13247;47.504;7.382;2023-09-07T12:57:23;97386.00;;;30.00;64.33
21817;BME280;13247;47.504;7.382;2023-09-07T13:00:08;97375.22;;;30.56;61.33
21817;BME280;13247;47.504;7.382;2023-09-07T13:02:55;97376.91;;;30.25;64.65
21817;BME280;13247;47.504;7.382;2023-09-07T13:05:40;97378.34;;;29.71;65.63
21817;BME280;13247;47.504;7.382;2023-09-07T13:08:25;97381.03;;;29.63;62.13
21817;BME280;13247;47.504;7.382;2023-09-07T13:11:09;97373.03;;;30.60;57.41
21817;BME280;13247;47.504;7.382;2023-09-07T13:13:54;97370.53;;;31.13;55.77
21817;BME280;13247;47.504;7.382;2023-09-07T13:16:38;97370.00;;;30.47;56.63
21817;BME280;13247;47.504;7.382;2023-09-07T13:19:23;97363.50;;;30.88;55.49
21817;BME280;13247;47.504;7.382;2023-09-07T13:22:08;97369.44;;;30.75;57.89
21817;BME280;13247;47.504;7.382;2023-09-07T13:24:53;97364.03;;;30.27;59.75
21817;BME280;13247;47.504;7.382;2023-09-07T13:27:37;97356.06;;;30.74;58.79
21817;BME280;13247;47.504;7.382;2023-09-07T13:30:22;97363.03;;;30.04;53.41
21817;BME280;13247;47.504;7.382;2023-09-07T13:33:07;97351.56;;;30.42;55.82
21817;BME280;13247;47.504;7.382;2023-09-07T13:35:52;97358.16;;;30.40;53.01
21817;BME280;13247;47.504;7.382;2023-09-07T13:38:37;97357.78;;;30.75;52.51
21817;BME280;13247;47.504;7.382;2023-09-07T13:41:22;97355.56;;;30.86;52.57
21817;BME280;13247;47.504;7.382;2023-09-07T13:44:07;97349.84;;;30.57;54.41
21817;BME280;13247;47.504;7.382;2023-09-07T13:46:52;97353.72;;;30.55;52.66
21817;BME280;13247;47.504;7.382;2023-09-07T13:49:39;97357.13;;;31.20;49.39
21817;BME280;13247;47.504;7.382;2023-09-07T13:52:24;97354.44;;;31.58;46.32
21817;BME280;13247;47.504;7.382;2023-09-07T13:55:08;97343.88;;;31.71;46.64
21817;BME280;13247;47.504;7.382;2023-09-07T13:57:53;97349.13;;;31.42;50.08
21817;BME280;13247;47.504;7.382;2023-09-07T14:00:38;97353.75;;;31.95;46.81
21817;BME280;13247;47.504;7.382;2023-09-07T14:03:23;97347.69;;;31.54;50.74
21817;BME280;13247;47.504;7.382;2023-09-07T14:06:08;97348.22;;;31.50;50.79
21817;BME280;13247;47.504;7.382;2023-09-07T14:08:52;97354.97;;;31.15;48.13
21817;BME280;13247;47.504;7.382;2023-09-07T14:11:37;97354.97;;;31.07;49.11
21817;BME280;13247;47.504;7.382;2023-09-07T14:14:22;97350.31;;;31.32;49.30
21817;BME280;13247;47.504;7.382;2023-09-07T14:17:07;97344.97;;;31.54;48.54
21817;BME280;13247;47.504;7.382;2023-09-07T14:19:51;97337.56;;;32.24;46.99
21817;BME280;13247;47.504;7.382;2023-09-07T14:22:36;97343.78;;;31.18;49.14
21817;BME280;13247;47.504;7.382;2023-09-07T14:25:20;97343.88;;;31.33;49.27
21817;BME280;13247;47.504;7.382;2023-09-07T14:28:05;97344.75;;;30.70;nan